Time;durP1;ratioP1;P1;durP2;ratioP2;P2;SDS_P1;SDS_P2;PMS_P1;PMS_P2;Temp;Humidity;BMP_temperature;BMP_pressure;BME280_temperature;BME280_humidity;BME280_pressure;Samples;Min_cycle;Max_cycle;Signal;HPM_P1;HPM_P2
2024/02/14 00:02:04;;;;;;;25.30;18.70;;;;;;;15.11;100.00;99076.01;104713;1257;72468;-60
2024/02/14 00:05:17;;;;;;;32.00;20.00;;;;;;;15.05;100.00;99083.30;104479;1260;59694;-59
2024/02/14 00:08:37;;;;;;;21.50;18.10;;;;;;;15.01;100.00;99086.39;105326;1258;59713;-60
2024/02/14 00:11:56;;;;;;;24.50;19.00;;;;;;;14.98;100.00;99089.96;104736;1262;71933;-60
2024/02/14 00:15:09;;;;;;;28.40;21.30;;;;;;;15.03;100.00;99094.05;103979;1262;68134;-59
2024/02/14 00:18:29;;;;;;;29.70;19.80;;;;;;;15.14;100.00;99105.25;103995;1260;72062;-61
2024/02/14 00:21:49;;;;;;;27.80;20.90;;;;;;;15.07;100.00;99102.96;104793;1262;60705;-63
2024/02/14 00:25:09;;;;;;;25.50;19.00;;;;;;;14.98;100.00;99104.45;104007;1262;59814;-61
2024/02/14 00:28:32;;;;;;;23.50;19.00;;;;;;;14.91;100.00;99102.10;104708;1262;73688;-60
2024/02/14 00:31:51;;;;;;;19.90;17.70;;;;;;;14.95;100.00;99098.32;104742;1259;70175;-61
2024/02/14 00:35:10;;;;;;;24.60;18.50;;;;;;;15.02;100.00;99095.14;104289;1264;72480;-60
2024/02/14 00:38:29;;;;;;;28.80;19.50;;;;;;;14.96;100.00;99093.12;104015;1265;60621;-60
2024/02/14 00:41:49;;;;;;;23.80;18.90;;;;;;;14.89;100.00;99093.63;104310;1262;59775;-59
2024/02/14 00:44:27;;;;;;;29.10;18.40;;;;;;;14.88;100.00;99096.68;104574;1262;73731;-59
2024/02/14 00:47:02;;;;;;;20.80;17.10;;;;;;;14.81;100.00;99094.70;104079;1262;69853;-59
2024/02/14 00:49:37;;;;;;;21.30;15.90;;;;;;;14.77;100.00;99096.20;104489;1260;72381;-60
2024/02/14 00:52:51;;;;;;;21.00;16.70;;;;;;;14.85;100.00;99092.09;104151;1271;60655;-60
2024/02/14 00:55:35;;;;;;;18.40;15.80;;;;;;;14.73;100.00;99093.10;104032;1265;60714;-60
2024/02/14 00:58:47;;;;;;;19.30;14.80;;;;;;;14.65;100.00;99089.75;104898;1257;73684;-60
2024/02/14 01:02:06;;;;;;;17.10;15.20;;;;;;;14.60;100.00;99084.48;104686;1257;69980;-60
2024/02/14 01:05:25;;;;;;;16.40;14.50;;;;;;;14.63;100.00;99077.59;104102;1270;73393;-61
2024/02/14 01:08:44;;;;;;;17.50;14.60;;;;;;;14.76;100.00;99072.27;104867;1256;61598;-61
2024/02/14 01:12:02;;;;;;;16.40;14.00;;;;;;;14.75;100.00;99069.31;104368;1262;60665;-59
2024/02/14 01:15:21;;;;;;;14.90;13.30;;;;;;;14.71;100.00;99067.98;104419;1262;73211;-59
2024/02/14 01:18:42;;;;;;;17.60;12.80;;;;;;;14.75;100.00;99062.81;105107;1262;69204;-59
2024/02/14 01:22:00;;;;;;;13.70;12.30;;;;;;;14.82;100.00;99055.99;103999;1259;72334;-62
2024/02/14 01:24:44;;;;;;;14.20;12.30;;;;;;;14.71;100.00;99063.92;104135;1262;61601;-59
2024/02/14 01:27:38;;;;;;;;;;;;;;;14.65;100.00;99053.76;104437;1267;60239;-60
2024/02/14 01:31:29;;;;;;;13.60;11.80;;;;;;;14.79;100.00;99062.70;104708;1257;72783;-61
2024/02/14 01:34:48;;;;;;;14.20;11.80;;;;;;;14.67;100.00;99069.39;104012;1262;70181;-59
2024/02/14 01:37:38;;;;;;;13.90;11.30;;;;;;;14.63;100.00;99076.48;104265;1259;73360;-60
2024/02/14 01:40:34;;;;;;;11.80;10.60;;;;;;;14.59;100.00;99078.88;104488;1262;60683;-61
2024/02/14 01:43:46;;;;;;;11.90;10.70;;;;;;;14.58;100.00;99080.35;104487;1269;60356;-59
2024/02/14 01:47:06;;;;;;;12.30;11.00;;;;;;;14.61;100.00;99076.79;104912;1258;72170;-60
2024/02/14 01:49:50;;;;;;;11.40;10.10;;;;;;;14.45;100.00;99072.09;104658;1267;69132;-59
2024/02/14 01:53:02;;;;;;;17.00;11.60;;;;;;;14.38;100.00;99068.95;105373;1256;72484;-60
2024/02/14 01:56:22;;;;;;;11.10;10.00;;;;;;;14.43;100.00;99072.52;104280;1274;60669;-59
2024/02/14 01:59:41;;;;;;;11.80;10.70;;;;;;;14.49;100.00;99074.79;104733;1261;59852;-59
2024/02/14 02:03:00;;;;;;;11.20;10.10;;;;;;;14.58;100.00;99072.98;104317;1258;73732;-59
2024/02/14 02:06:19;;;;;;;10.30;9.20;;;;;;;14.71;100.00;99071.02;105822;1256;69321;-59
2024/02/14 02:09:44;;;;;;;10.90;9.80;;;;;;;14.91;100.00;99069.64;105304;1260;72479;-60
2024/02/14 02:12:56;;;;;;;10.50;9.40;;;;;;;14.83;100.00;99070.70;104531;1260;60493;-59
2024/02/14 02:16:15;;;;;;;10.30;9.30;;;;;;;14.82;100.00;99073.80;105349;1256;59915;-60
2024/02/14 02:19:33;;;;;;;10.90;9.80;;;;;;;14.97;100.00;99076.09;104364;1254;73818;-59
2024/02/14 02:22:53;;;;;;;10.50;9.40;;;;;;;14.93;100.00;99073.73;104382;1271;68507;-60
2024/02/14 02:26:12;;;;;;;9.70;8.70;;;;;;;14.92;100.00;99083.31;104692;1260;73190;-59
2024/02/14 02:29:32;;;;;;;9.60;8.60;;;;;;;14.38;100.00;99088.05;104525;1260;60598;-60
2024/02/14 02:32:51;;;;;;;8.40;7.60;;;;;;;14.33;100.00;99092.61;105151;1259;59717;-59
2024/02/14 02:36:11;;;;;;;8.50;7.70;;;;;;;14.24;100.00;99099.55;104450;1259;73785;-59
2024/02/14 02:39:30;;;;;;;8.70;7.70;;;;;;;14.26;100.00;99096.23;104685;1262;69252;-60
2024/02/14 02:42:50;;;;;;;8.10;7.10;;;;;;;14.28;100.00;99097.52;104740;1256;73399;-59
2024/02/14 02:45:34;;;;;;;8.10;7.20;;;;;;;14.32;100.00;99103.95;104570;1254;61618;-61
2024/02/14 02:48:28;;;;;;;;;;;;;;;14.33;100.00;99107.22;105052;1253;59691;-60
2024/02/14 02:52:43;;;;;;;7.60;6.80;;;;;;;14.33;100.00;99109.89;104859;1258;73518;-60
2024/02/14 02:55:36;;;;;;;7.10;6.50;;;;;;;14.36;100.00;99108.62;104347;1275;69597;-60
2024/02/14 02:58:52;;;;;;;8.10;7.10;;;;;;;14.29;100.00;99112.09;104538;1254;72534;-60
2024/02/14 03:02:09;;;;;;;11.20;6.40;;;;;;;14.31;100.00;99113.91;104840;1259;60597;-62
2024/02/14 03:05:23;;;;;;;7.30;6.50;;;;;;;14.27;100.00;99114.14;104436;1254;59691;-61
2024/02/14 03:08:38;;;;;;;23.60;6.90;;;;;;;14.21;100.00;99115.23;104425;1259;72925;-60
2024/02/14 03:11:56;;;;;;;19.60;7.10;;;;;;;14.02;100.00;99112.64;104483;1263;69304;-60
2024/02/14 03:15:15;;;;;;;13.70;7.60;;;;;;;14.28;100.00;99115.54;104879;1258;73349;-60
2024/02/14 03:18:34;;;;;;;13.20;7.00;;;;;;;14.34;100.00;99120.77;104555;1254;60637;-58
2024/02/14 03:21:09;;;;;;;15.10;7.80;;;;;;;14.25;100.00;99121.37;105182;1269;59681;-60
2024/02/14 03:24:04;;;;;;;;;;;;;;;14.26;100.00;99121.42;104691;1259;73725;-60
2024/02/14 03:27:26;;;;;;;7.60;6.50;;;;;;;14.40;100.00;99124.39;104836;1258;69456;-61
2024/02/14 03:30:42;;;;;;;11.60;6.30;;;;;;;14.30;100.00;99132.27;105049;1254;73386;-61
2024/02/14 03:34:02;;;;;;;9.00;6.30;;;;;;;14.01;100.00;99129.43;104278;1258;60621;-58
2024/02/14 03:37:21;;;;;;;10.00;6.00;;;;;;;13.90;100.00;99132.41;104577;1259;59728;-61
2024/02/14 03:40:41;;;;;;;6.10;5.30;;;;;;;13.91;100.00;99138.36;104346;1275;71805;-59
2024/02/14 03:44:02;;;;;;;10.30;5.10;;;;;;;13.87;100.00;99134.20;104703;1258;69046;-59
2024/02/14 03:47:27;;;;;;;11.10;4.70;;;;;;;13.82;100.00;99134.55;104862;1259;71949;-60
2024/02/14 03:50:54;;;;;;;7.20;5.10;;;;;;;13.60;100.00;99143.70;104660;1258;60988;-59
2024/02/14 03:54:12;;;;;;;9.70;4.90;;;;;;;13.67;100.00;99153.08;104950;1253;59755;-60
2024/02/14 03:57:35;;;;;;;9.30;5.20;;;;;;;13.68;100.00;99155.88;104564;1258;72918;-59
2024/02/14 04:00:35;;;;;;;7.20;4.70;;;;;;;13.44;100.00;99155.75;104932;1258;69791;-60
2024/02/14 04:03:03;;;;;;;6.60;4.60;;;;;;;13.71;100.00;99164.67;104698;1259;71392;-60
2024/02/14 04:05:34;;;;;;;5.60;5.00;;;;;;;13.75;100.00;99170.89;104505;1259;59942;-60
2024/02/14 04:08:46;;;;;;;7.30;5.10;;;;;;;13.79;100.00;99172.04;105179;1254;59623;-60
2024/02/14 04:12:06;;;;;;;10.30;5.10;;;;;;;13.73;100.00;99172.47;104699;1254;73696;-59
2024/02/14 04:15:25;;;;;;;8.40;4.40;;;;;;;13.68;100.00;99176.13;104990;1258;69954;-60
2024/02/14 04:18:45;;;;;;;6.90;5.10;;;;;;;13.66;100.00;99180.67;104803;1259;73316;-59
2024/02/14 04:21:58;;;;;;;5.20;4.70;;;;;;;13.65;100.00;99181.38;104769;1259;60894;-60
2024/02/14 04:25:12;;;;;;;6.10;5.20;;;;;;;13.77;100.00;99184.52;104490;1260;59785;-59
2024/02/14 04:28:31;;;;;;;5.30;4.90;;;;;;;13.76;100.00;99187.41;104756;1259;72751;-60
2024/02/14 04:31:52;;;;;;;10.30;5.20;;;;;;;13.65;100.00;99190.41;104847;1254;69053;-60
2024/02/14 04:35:13;;;;;;;10.60;5.40;;;;;;;13.58;100.00;99185.89;104944;1258;71212;-60
2024/02/14 04:38:31;;;;;;;5.50;4.90;;;;;;;13.69;100.00;99183.95;104574;1260;59827;-60
2024/02/14 04:41:50;;;;;;;5.70;5.20;;;;;;;13.56;100.00;99187.23;104785;1260;60096;-60
2024/02/14 04:45:13;;;;;;;5.90;4.70;;;;;;;13.48;100.00;99194.63;104612;1261;74207;-59
2024/02/14 04:48:33;;;;;;;8.30;5.00;;;;;;;13.52;100.00;99195.73;104731;1259;69996;-60
2024/02/14 04:51:59;;;;;;;6.20;5.00;;;;;;;13.55;100.00;99198.23;104395;1260;71372;-60
2024/02/14 04:55:11;;;;;;;5.10;4.60;;;;;;;13.55;100.00;99203.67;105185;1259;60662;-60
2024/02/14 04:58:30;;;;;;;5.10;4.50;;;;;;;13.52;100.00;99208.98;104853;1259;60005;-60
2024/02/14 05:01:27;;;;;;;4.40;4.00;;;;;;;13.42;100.00;99214.88;106043;1254;72787;-60
2024/02/14 05:04:39;;;;;;;5.90;4.60;;;;;;;13.67;100.00;99208.77;104986;1257;69143;-60
2024/02/14 05:07:58;;;;;;;7.20;4.40;;;;;;;13.36;100.00;99206.64;104732;1261;73436;-59
2024/02/14 05:11:18;;;;;;;4.90;4.40;;;;;;;13.29;100.00;99204.02;104285;1264;60641;-59
2024/02/14 05:14:36;;;;;;;6.50;4.90;;;;;;;13.26;100.00;99211.08;104373;1259;60505;-59
2024/02/14 05:17:56;;;;;;;6.40;5.80;;;;;;;13.21;100.00;99210.65;104559;1257;73693;-59
2024/02/14 05:21:14;;;;;;;9.00;5.80;;;;;;;13.13;100.00;99211.30;104676;1259;70201;-60
2024/02/14 05:24:37;;;;;;;5.80;5.30;;;;;;;13.10;100.00;99212.92;104882;1261;72292;-60
2024/02/14 05:27:52;;;;;;;5.80;5.10;;;;;;;13.13;100.00;99221.68;104512;1259;61639;-59
2024/02/14 05:31:12;;;;;;;5.90;5.00;;;;;;;13.21;100.00;99227.70;104313;1259;60588;-58
2024/02/14 05:34:30;;;;;;;5.40;4.90;;;;;;;13.16;100.00;99238.41;104617;1254;73589;-59
2024/02/14 05:37:50;;;;;;;5.80;4.30;;;;;;;13.16;100.00;99249.85;104981;1254;69151;-58
2024/02/14 05:40:35;;;;;;;6.90;4.40;;;;;;;13.13;100.00;99256.54;104660;1254;72596;-58
2024/02/14 05:43:48;;;;;;;4.80;4.40;;;;;;;13.09;100.00;99258.02;105000;1254;60980;-59
2024/02/14 05:47:07;;;;;;;4.60;4.20;;;;;;;13.08;100.00;99263.35;104743;1257;60633;-62
2024/02/14 05:50:26;;;;;;;5.00;4.50;;;;;;;12.99;100.00;99265.44;104414;1260;73634;-60
2024/02/14 05:53:15;;;;;;;7.50;5.00;;;;;;;13.14;100.00;99267.22;104588;1259;69344;-62
2024/02/14 05:56:27;;;;;;;9.30;4.80;;;;;;;13.14;100.00;99270.38;104320;1276;73724;-62
2024/02/14 05:59:46;;;;;;;5.20;4.70;;;;;;;13.31;100.00;99276.94;104410;1257;61001;-60
2024/02/14 06:03:08;;;;;;;5.60;4.50;;;;;;;13.28;100.00;99283.27;105316;1260;60423;-61
2024/02/14 06:06:27;;;;;;;7.00;4.20;;;;;;;13.03;100.00;99283.00;104516;1258;73101;-62
2024/02/14 06:09:46;;;;;;;15.70;6.40;;;;;;;12.95;100.00;99273.81;104436;1270;70065;-60
2024/02/14 06:13:05;;;;;;;11.60;6.10;;;;;;;12.88;100.00;99281.76;104894;1257;71434;-61
2024/02/14 06:16:25;;;;;;;9.70;6.20;;;;;;;12.85;100.00;99284.05;104185;1257;60598;-61
2024/02/14 06:19:44;;;;;;;8.20;5.00;;;;;;;12.88;100.00;99291.06;104482;1260;60586;-63
2024/02/14 06:23:07;;;;;;;5.80;4.90;;;;;;;12.78;100.00;99293.02;105542;1254;73676;-60
2024/02/14 06:26:22;;;;;;;5.90;4.50;;;;;;;12.72;100.00;99296.55;104175;1263;68224;-60
2024/02/14 06:29:41;;;;;;;5.80;4.20;;;;;;;12.66;100.00;99301.08;104496;1257;72904;-60
2024/02/14 06:33:02;;;;;;;4.60;4.00;;;;;;;12.55;100.00;99297.71;104785;1260;60666;-60
2024/02/14 06:36:21;;;;;;;6.30;4.30;;;;;;;12.52;100.00;99300.84;104624;1261;60505;-61
2024/02/14 06:39:39;;;;;;;4.20;3.80;;;;;;;12.49;100.00;99303.68;104664;1260;73637;-60
2024/02/14 06:42:59;;;;;;;5.30;3.80;;;;;;;12.48;100.00;99310.58;104952;1258;70336;-62
2024/02/14 06:46:18;;;;;;;5.90;4.00;;;;;;;12.44;100.00;99315.17;104709;1257;72516;-60
2024/02/14 06:49:39;;;;;;;4.20;3.80;;;;;;;12.46;100.00;99316.50;105840;1257;61253;-60
2024/02/14 06:52:59;;;;;;;4.10;3.70;;;;;;;12.43;100.00;99320.86;105316;1257;60457;-60
2024/02/14 06:56:17;;;;;;;4.60;3.90;;;;;;;12.37;100.00;99324.91;104043;1264;74903;-60
2024/02/14 06:59:37;;;;;;;5.70;3.60;;;;;;;12.64;100.00;99327.56;104202;1258;70061;-60
2024/02/14 07:02:56;;;;;;;7.10;4.80;;;;;;;12.77;100.00;99331.62;105505;1257;72339;-61
2024/02/14 07:06:06;;;;;;;4.30;3.90;;;;;;;12.49;100.00;99334.23;104935;1257;60772;-62
2024/02/14 07:09:18;;;;;;;6.40;3.70;;;;;;;12.34;100.00;99338.92;104650;1256;61172;-60
2024/02/14 07:12:25;;;;;;;5.80;4.20;;;;;;;12.38;100.00;99341.19;104430;1256;72688;-61
2024/02/14 07:15:38;;;;;;;4.80;4.10;;;;;;;12.28;100.00;99343.66;104272;1272;69901;-61
2024/02/14 07:18:56;;;;;;;9.00;3.80;;;;;;;12.38;100.00;99341.20;104181;1260;73357;-59
2024/02/14 07:22:15;;;;;;;4.70;4.20;;;;;;;12.44;100.00;99339.44;104685;1258;60938;-59
2024/02/14 07:25:29;;;;;;;5.40;4.30;;;;;;;12.43;100.00;99342.49;105011;1257;60438;-59
2024/02/14 07:28:23;;;;;;;;;;;;;;;12.38;100.00;99346.27;104852;1263;74138;-63
2024/02/14 07:31:39;;;;;;;5.30;4.50;;;;;;;12.34;100.00;99342.41;105194;1255;69245;-65
2024/02/14 07:34:58;;;;;;;5.90;4.20;;;;;;;12.33;100.00;99342.71;105771;1257;72508;-65
2024/02/14 07:38:17;;;;;;;6.00;4.60;;;;;;;12.36;100.00;99341.27;105503;1258;60704;-63
2024/02/14 07:41:36;;;;;;;5.90;4.50;;;;;;;12.33;100.00;99343.59;105519;1255;60570;-60
2024/02/14 07:44:56;;;;;;;6.40;4.90;;;;;;;12.39;100.00;99347.44;104531;1258;74048;-60
2024/02/14 07:48:14;;;;;;;6.10;5.10;;;;;;;12.42;100.00;99351.34;104659;1255;69323;-60
2024/02/14 07:51:36;;;;;;;6.90;5.30;;;;;;;12.45;100.00;99353.95;104828;1256;72524;-61
2024/02/14 07:54:56;;;;;;;11.90;5.00;;;;;;;13.14;100.00;99352.19;105107;1256;60984;-61
2024/02/14 07:58:22;;;;;;;7.70;6.00;;;;;;;12.94;100.00;99359.46;105065;1257;61241;-61
2024/02/14 08:01:42;;;;;;;7.00;5.60;;;;;;;12.58;100.00;99366.63;104599;1258;75191;-60
2024/02/14 08:05:01;;;;;;;7.60;6.20;;;;;;;13.35;100.00;99372.66;104574;1260;69018;-63
2024/02/14 08:08:21;;;;;;;8.80;6.40;;;;;;;12.91;100.00;99374.77;104763;1256;72514;-61
2024/02/14 08:11:40;;;;;;;9.60;6.30;;;;;;;12.91;100.00;99376.90;105156;1258;61586;-62
2024/02/14 08:14:28;;;;;;;13.90;6.50;;;;;;;13.33;100.00;99385.15;104847;1261;60528;-63
2024/02/14 08:17:41;;;;;;;10.20;6.40;;;;;;;12.80;100.00;99379.30;104824;1257;74793;-63
2024/02/14 08:21:01;;;;;;;11.20;7.10;;;;;;;12.71;100.00;99397.20;105047;1258;73386;-65
2024/02/14 08:24:13;;;;;;;8.80;6.10;;;;;;;12.64;100.00;99407.27;105252;1256;73236;-63
2024/02/14 08:27:32;;;;;;;9.80;6.00;;;;;;;12.63;100.00;99418.72;104411;1260;60588;-64
2024/02/14 08:30:37;;;;;;;11.30;6.70;;;;;;;12.50;100.00;99425.75;104729;1260;60550;-64
2024/02/14 08:33:51;;;;;;;9.80;6.70;;;;;;;12.35;100.00;99430.77;104804;1260;75837;-62
2024/02/14 08:36:48;;;;;;;6.90;5.60;;;;;;;12.40;100.00;99426.33;105291;1260;70299;-62
2024/02/14 08:39:54;;;;;;;7.40;5.70;;;;;;;12.37;100.00;99433.15;106046;1256;73005;-62
2024/02/14 08:43:13;;;;;;;7.60;5.50;;;;;;;12.38;100.00;99440.45;105190;1256;60740;-63
2024/02/14 08:46:32;;;;;;;7.30;5.00;;;;;;;12.35;100.00;99443.65;104862;1257;60590;-62
2024/02/14 08:49:52;;;;;;;8.50;4.80;;;;;;;12.34;100.00;99444.03;105504;1256;73553;-64
2024/02/14 08:53:13;;;;;;;6.50;4.90;;;;;;;12.34;100.00;99447.90;105675;1255;73179;-63
2024/02/14 08:56:35;;;;;;;5.10;4.50;;;;;;;12.95;100.00;99442.85;105622;1258;75597;-63
2024/02/14 08:59:51;;;;;;;7.10;5.00;;;;;;;12.62;100.00;99447.30;104451;1260;60703;-61
2024/02/14 09:02:50;;;;;;;5.80;4.80;;;;;;;12.93;100.00;99440.83;105701;1256;60574;-60
2024/02/14 09:05:38;;;;;;;5.30;4.70;;;;;;;12.60;100.00;99447.91;105134;1256;73425;-60
2024/02/14 09:08:51;;;;;;;7.00;4.60;;;;;;;12.55;100.00;99450.30;105723;1255;69360;-61
2024/02/14 09:12:11;;;;;;;5.50;4.20;;;;;;;12.43;100.00;99452.70;104935;1257;72961;-61
2024/02/14 09:15:30;;;;;;;7.10;4.70;;;;;;;12.42;100.00;99450.48;105247;1258;61156;-60
2024/02/14 09:18:50;;;;;;;5.10;4.50;;;;;;;12.41;100.00;99450.52;105335;1257;60497;-62
2024/02/14 09:22:09;;;;;;;6.30;4.10;;;;;;;12.36;100.00;99448.18;106838;1254;76460;-59
2024/02/14 09:25:28;;;;;;;4.90;3.90;;;;;;;12.44;100.00;99455.27;105579;1255;69740;-59
2024/02/14 09:28:40;;;;;;;5.50;4.10;;;;;;;12.87;100.00;99453.45;105021;1255;71920;-61
2024/02/14 09:31:54;;;;;;;5.70;4.30;;;;;;;12.90;100.00;99449.77;105109;1260;61183;-62
2024/02/14 09:35:13;;;;;;;7.30;5.10;;;;;;;13.14;100.00;99461.46;105441;1257;60570;-62
2024/02/14 09:38:34;;;;;;;10.10;4.90;;;;;;;12.91;100.00;99467.17;105002;1255;73656;-61
2024/02/14 09:41:54;;;;;;;5.60;4.50;;;;;;;12.87;100.00;99468.58;105282;1258;68507;-61
2024/02/14 09:45:12;;;;;;;8.70;5.00;;;;;;;12.55;100.00;99468.74;104647;1255;72713;-60
2024/02/14 09:48:37;;;;;;;6.40;4.80;;;;;;;12.52;100.00;99474.89;104971;1255;60929;-62
2024/02/14 09:51:56;;;;;;;6.40;5.30;;;;;;;12.45;100.00;99474.59;105038;1258;60589;-61
2024/02/14 09:55:12;;;;;;;7.10;5.00;;;;;;;12.46;100.00;99478.53;106301;1254;73760;-61
2024/02/14 09:58:03;;;;;;;7.00;4.50;;;;;;;12.50;100.00;99477.63;104596;1256;72207;-60
2024/02/14 10:00:35;;;;;;;6.00;4.70;;;;;;;12.49;100.00;99479.64;104770;1259;73755;-60
2024/02/14 10:03:48;;;;;;;8.90;5.00;;;;;;;12.31;100.00;99482.88;104987;1256;61271;-61
2024/02/14 10:07:00;;;;;;;5.70;4.80;;;;;;;12.32;100.00;99479.83;104512;1257;60656;-60
2024/02/14 10:10:19;;;;;;;7.10;4.80;;;;;;;12.36;100.00;99481.89;104432;1255;73626;-60
2024/02/14 10:13:38;;;;;;;5.70;4.50;;;;;;;12.39;100.00;99483.31;104674;1258;69289;-60
2024/02/14 10:16:58;;;;;;;6.50;4.00;;;;;;;12.42;100.00;99484.55;104811;1256;72471;-60
2024/02/14 10:20:17;;;;;;;6.10;4.40;;;;;;;12.33;100.00;99487.67;105714;1255;61878;-61
2024/02/14 10:23:36;;;;;;;5.10;3.80;;;;;;;12.12;100.00;99481.91;105553;1256;62961;-62
2024/02/14 10:26:57;;;;;;;7.00;3.90;;;;;;;11.96;100.00;99487.30;106088;1256;75235;-62
2024/02/14 10:30:15;;;;;;;6.00;4.20;;;;;;;11.99;100.00;99483.26;105318;1258;70929;-60
2024/02/14 10:33:35;;;;;;;5.90;4.20;;;;;;;12.05;100.00;99469.47;105033;1261;75570;-61
2024/02/14 10:36:55;;;;;;;5.90;3.70;;;;;;;11.97;100.00;99476.02;105874;1256;60551;-61
2024/02/14 10:40:15;;;;;;;5.40;3.50;;;;;;;11.94;100.00;99479.51;105086;1254;62219;-60
2024/02/14 10:43:34;;;;;;;5.90;3.80;;;;;;;12.17;100.00;99480.61;105295;1257;72807;-61
2024/02/14 10:46:53;;;;;;;7.80;3.90;;;;;;;11.93;100.00;99481.68;105607;1258;71303;-60
2024/02/14 10:50:12;;;;;;;5.40;3.60;;;;;;;11.90;100.00;99477.21;104668;1263;72716;-60
2024/02/14 10:53:34;;;;;;;5.00;3.60;;;;;;;11.97;100.00;99476.52;105029;1256;61248;-60
2024/02/14 10:56:52;;;;;;;6.70;4.40;;;;;;;12.00;100.00;99482.20;104988;1256;59696;-60
2024/02/14 11:00:18;;;;;;;8.90;4.00;;;;;;;11.98;100.00;99482.11;105508;1255;73974;-61
2024/02/14 11:03:40;;;;;;;5.30;3.90;;;;;;;11.98;100.00;99485.09;105048;1258;68356;-61
2024/02/14 11:07:02;;;;;;;6.70;3.80;;;;;;;12.05;100.00;99486.99;105348;1257;73610;-60
2024/02/14 11:10:18;;;;;;;6.10;4.20;;;;;;;11.97;100.00;99488.63;105693;1256;61722;-60
2024/02/14 11:13:37;;;;;;;6.00;4.00;;;;;;;11.97;100.00;99494.25;105497;1256;60089;-62
2024/02/14 11:16:56;;;;;;;4.40;3.50;;;;;;;11.92;100.00;99489.24;104767;1258;74335;-61
2024/02/14 11:20:16;;;;;;;4.40;3.30;;;;;;;11.98;100.00;99488.59;104661;1260;70113;-61
2024/02/14 11:23:35;;;;;;;6.80;4.20;;;;;;;11.92;100.00;99491.00;106100;1255;72708;-61
2024/02/14 11:26:55;;;;;;;7.00;3.90;;;;;;;12.14;100.00;99494.66;104378;1260;61568;-60
2024/02/14 11:30:16;;;;;;;5.60;4.30;;;;;;;12.16;100.00;99502.08;106740;1255;60662;-60
2024/02/14 11:33:35;;;;;;;4.10;3.30;;;;;;;12.08;100.00;99502.34;105089;1256;74133;-60
2024/02/14 11:36:54;;;;;;;7.00;3.80;;;;;;;11.98;100.00;99502.32;106498;1256;69725;-63
2024/02/14 11:40:13;;;;;;;5.10;4.30;;;;;;;12.04;100.00;99505.84;105656;1256;74692;-61
2024/02/14 11:43:34;;;;;;;5.60;4.10;;;;;;;11.92;100.00;99506.48;105765;1255;60936;-60
2024/02/14 11:46:53;;;;;;;5.70;3.90;;;;;;;12.01;100.00;99508.28;106818;1256;60444;-61
2024/02/14 11:50:12;;;;;;;5.70;4.20;;;;;;;12.09;100.00;99508.08;105967;1256;74496;-60
2024/02/14 11:53:32;;;;;;;4.90;3.90;;;;;;;12.17;100.00;99510.63;106141;1256;69508;-59
2024/02/14 11:56:51;;;;;;;7.10;4.60;;;;;;;12.12;100.00;99506.70;106737;1258;73187;-60
2024/02/14 12:03:50;;;;;;;5.70;3.90;;;;;;;12.08;100.00;99522.88;102411;1287;615967;-59
2024/02/14 12:07:10;;;;;;;5.10;4.00;;;;;;;12.52;100.00;99521.47;105784;1254;59609;-59
2024/02/14 12:09:50;;;;;;;6.20;4.20;;;;;;;12.40;100.00;99524.05;107247;1254;60994;-60
2024/02/14 12:13:02;;;;;;;6.20;4.90;;;;;;;12.31;100.00;99524.86;105289;1257;72597;-60
2024/02/14 12:15:38;;;;;;;6.10;4.90;;;;;;;12.29;100.00;99532.38;103246;1260;2215331;-60
2024/02/14 12:18:56;;;;;;;6.20;4.80;;;;;;;12.25;100.00;99532.20;105845;1253;71536;-60
2024/02/14 12:21:48;;;;;;;9.00;5.30;;;;;;;12.18;100.00;99533.41;105421;1253;60793;-58
2024/02/14 12:25:05;;;;;;;6.80;4.90;;;;;;;12.18;100.00;99541.00;104918;1252;60072;-59
2024/02/14 12:28:32;;;;;;;5.20;4.20;;;;;;;12.20;100.00;99545.46;105433;1257;71894;-59
2024/02/14 12:31:30;;;;;;;8.10;4.70;;;;;;;12.63;100.00;99552.37;104493;1260;69446;-59
2024/02/14 12:34:10;;;;;;;8.70;5.20;;;;;;;12.62;100.00;99555.76;104608;1260;73129;-59
2024/02/14 12:37:22;;;;;;;9.70;6.00;;;;;;;12.56;100.00;99558.73;105509;1254;61191;-59
2024/02/14 12:39:56;;;;;;;8.70;6.80;;;;;;;12.22;100.00;99558.36;105229;1261;60138;-59
2024/02/14 12:42:36;;;;;;;11.00;6.40;;;;;;;12.08;100.00;99565.40;105044;1257;72887;-59
2024/02/14 12:45:47;;;;;;;6.30;5.20;;;;;;;11.92;100.00;99565.30;105710;1253;69734;-59
2024/02/14 12:49:13;;;;;;;8.70;5.30;;;;;;;11.89;100.00;99565.80;104735;1255;72727;-59
2024/02/14 12:52:31;;;;;;;7.80;5.80;;;;;;;11.94;100.00;99570.14;106743;1252;60979;-61
2024/02/14 12:55:20;;;;;;;7.80;6.20;;;;;;;11.98;100.00;99575.00;104653;1253;59698;-61
2024/02/14 12:58:31;;;;;;;8.00;6.20;;;;;;;11.95;100.00;99580.09;105255;1253;71691;-60
2024/02/14 13:01:49;;;;;;;5.40;4.60;;;;;;;11.81;100.00;99580.04;105857;1252;70114;-58
2024/02/14 13:05:07;;;;;;;6.20;4.80;;;;;;;11.87;100.00;99577.99;104788;1253;72182;-60
2024/02/14 13:07:54;;;;;;;6.00;4.30;;;;;;;11.86;100.00;99583.85;104776;1256;61720;-62
2024/02/14 13:10:37;;;;;;;7.80;4.70;;;;;;;12.18;100.00;99587.37;105762;1252;60069;-63
2024/02/14 13:13:54;;;;;;;5.30;4.70;;;;;;;12.14;100.00;99590.04;105091;1257;73481;-61
2024/02/14 13:17:51;;;;;;;5.70;4.00;;;;;;;12.02;100.00;99594.13;104327;1258;69397;-60
2024/02/14 13:20:40;;;;;;;7.70;6.30;;;;;;;12.08;100.00;99597.73;104605;1264;73171;-61
2024/02/14 13:23:57;;;;;;;8.80;5.40;;;;;;;12.10;100.00;99600.09;104614;1257;61089;-61
2024/02/14 13:27:16;;;;;;;8.10;5.70;;;;;;;12.07;100.00;99594.61;105264;1256;60657;-61
2024/02/14 13:30:34;;;;;;;7.10;5.60;;;;;;;12.08;100.00;99607.04;105366;1252;72727;-61
2024/02/14 13:33:32;;;;;;;5.90;5.00;;;;;;;12.14;100.00;99607.27;105013;1253;69522;-61
2024/02/14 13:36:52;;;;;;;6.70;5.20;;;;;;;12.18;100.00;99610.40;105358;1253;72761;-61
2024/02/14 13:40:10;;;;;;;6.50;5.70;;;;;;;12.13;100.00;99613.64;104495;1253;60942;-61
2024/02/14 13:42:57;;;;;;;6.30;5.00;;;;;;;12.21;100.00;99617.65;106084;1252;59725;-61
2024/02/14 13:45:42;;;;;;;6.40;5.30;;;;;;;12.28;100.00;99621.85;105506;1253;73417;-61
2024/02/14 13:48:54;;;;;;;5.70;4.80;;;;;;;12.38;100.00;99628.36;104852;1253;68598;-60
2024/02/14 13:52:20;;;;;;;8.80;5.00;;;;;;;12.31;100.00;99626.81;104317;1264;72542;-60
2024/02/14 13:54:53;;;;;;;5.70;4.40;;;;;;;12.35;100.00;99631.54;104323;1258;61156;-60
2024/02/14 13:57:38;;;;;;;7.50;5.10;;;;;;;12.19;100.00;99636.36;104630;1256;60331;-61
2024/02/14 14:00:49;;;;;;;6.50;4.70;;;;;;;11.95;100.00;99641.05;105581;1252;72910;-61
2024/02/14 14:04:14;;;;;;;6.60;5.20;;;;;;;11.72;100.00;99648.95;105227;1258;69436;-61
2024/02/14 14:07:33;;;;;;;6.80;4.90;;;;;;;11.61;100.00;99650.00;105327;1256;73409;-61
2024/02/14 14:11:09;;;;;;;7.20;4.80;;;;;;;11.69;100.00;99658.41;105137;1253;61032;-61
2024/02/14 14:13:40;;;;;;;6.80;4.40;;;;;;;11.74;100.00;99668.54;105371;1255;60111;-61
2024/02/14 14:16:58;;;;;;;6.20;4.70;;;;;;;11.85;100.00;99671.54;104987;1254;73073;-60
2024/02/14 14:19:44;;;;;;;5.60;4.40;;;;;;;12.07;100.00;99673.46;104897;1254;68789;-61
2024/02/14 14:22:25;;;;;;;7.00;4.80;;;;;;;11.94;100.00;99676.04;104304;1257;72826;-60
2024/02/14 14:25:37;;;;;;;6.50;4.70;;;;;;;11.68;100.00;99676.35;105030;1254;62320;-60
2024/02/14 14:28:11;;;;;;;7.00;4.90;;;;;;;11.67;100.00;99680.27;104932;1254;60244;-61
2024/02/14 14:31:22;;;;;;;6.00;4.70;;;;;;;11.66;100.00;99671.16;105370;1257;74665;-60
2024/02/14 14:34:09;;;;;;;6.20;4.70;;;;;;;11.90;100.00;99688.70;104946;1252;69865;-61
2024/02/14 14:37:28;;;;;;;6.90;5.20;;;;;;;11.99;100.00;99697.09;104964;1254;72759;-60
2024/02/14 14:40:37;;;;;;;6.10;4.80;;;;;;;11.98;100.00;99705.89;105276;1257;61914;-60
2024/02/14 14:43:49;;;;;;;6.80;5.20;;;;;;;11.59;100.00;99711.71;105292;1252;60303;-61
2024/02/14 14:46:35;;;;;;;6.10;4.80;;;;;;;11.61;100.00;99711.61;105098;1257;72892;-62